Map

Track Data

SID SEASON NUMBER BASIN SUBBASIN NAME ISO_TIME NATURE LAT LON WMO_WIND WMO_PRES WMO_AGENCY TRACK_TYPE DIST2LAND LANDFALL IFLAG USA_AGENCY USA_ATCF_ID USA_LAT USA_LON USA_RECORD USA_STATUS USA_WIND USA_PRES USA_SSHS USA_R34_NE USA_R34_SE USA_R34_SW USA_R34_NW USA_R50_NE USA_R50_SE USA_R50_SW USA_R50_NW USA_R64_NE USA_R64_SE USA_R64_SW USA_R64_NW USA_POCI USA_ROCI USA_RMW USA_EYE TOKYO_LAT TOKYO_LON TOKYO_GRADE TOKYO_WIND TOKYO_PRES TOKYO_R50_DIR TOKYO_R50_LONG TOKYO_R50_SHORT TOKYO_R30_DIR TOKYO_R30_LONG TOKYO_R30_SHORT TOKYO_LAND CMA_LAT CMA_LON CMA_CAT CMA_WIND CMA_PRES HKO_LAT HKO_LON HKO_CAT HKO_WIND HKO_PRES NEWDELHI_LAT NEWDELHI_LON NEWDELHI_GRADE NEWDELHI_WIND NEWDELHI_PRES NEWDELHI_CI NEWDELHI_DP NEWDELHI_POCI REUNION_LAT REUNION_LON REUNION_TYPE REUNION_WIND REUNION_PRES REUNION_TNUM REUNION_CI REUNION_RMW REUNION_R34_NE REUNION_R34_SE REUNION_R34_SW REUNION_R34_NW REUNION_R50_NE REUNION_R50_SE REUNION_R50_SW REUNION_R50_NW REUNION_R64_NE REUNION_R64_SE REUNION_R64_SW REUNION_R64_NW BOM_LAT BOM_LON BOM_TYPE BOM_WIND BOM_PRES BOM_TNUM BOM_CI BOM_RMW BOM_R34_NE BOM_R34_SE BOM_R34_SW BOM_R34_NW BOM_R50_NE BOM_R50_SE BOM_R50_SW BOM_R50_NW BOM_R64_NE BOM_R64_SE BOM_R64_SW BOM_R64_NW BOM_ROCI BOM_POCI BOM_EYE BOM_POS_METHOD BOM_PRES_METHOD NADI_LAT NADI_LON NADI_CAT NADI_WIND NADI_PRES WELLINGTON_LAT WELLINGTON_LON WELLINGTON_WIND WELLINGTON_PRES DS824_LAT DS824_LON DS824_STAGE DS824_WIND DS824_PRES TD9636_LAT TD9636_LON TD9636_STAGE TD9636_WIND TD9636_PRES TD9635_LAT TD9635_LON TD9635_WIND TD9635_PRES TD9635_ROCI NEUMANN_LAT NEUMANN_LON NEUMANN_CLASS NEUMANN_WIND NEUMANN_PRES MLC_LAT MLC_LON MLC_CLASS MLC_WIND MLC_PRES USA_GUST BOM_GUST BOM_GUST_PER REUNION_GUST REUNION_GUST_PER USA_SEAHGT USA_SEARAD_NE USA_SEARAD_SE USA_SEARAD_SW USA_SEARAD_NW STORM_SPEED STORM_DIR
1938279N18090 1938 56 NI BB NOT_NAMED 1938-10-06 00:00:00 TS 17.6000 90.2000 main 398 390 _________O____ -1 17.6000 90.2000 TC 30 2 0
1938279N18090 1938 56 NI BB NOT_NAMED 1938-10-06 03:00:00 TS 17.7083 90.1733 main 390 383 _________PO___ -1 17.7625 90.1600 TC 30 17.6000 90.2000 1 2 340
1938279N18090 1938 56 NI BB NOT_NAMED 1938-10-06 06:00:00 TS 17.8288 90.1113 main 390 383 _________OP___ -1 17.9000 90.1000 TC 30 17.7219 90.1282 1 3 329
1938279N18090 1938 56 NI BB NOT_NAMED 1938-10-06 09:00:00 TS 17.9336 90.0279 main 390 382 _________PP___ -1 18.0000 90.0075 TC 30 17.8450 90.0551 1 3 322
1938279N18090 1938 56 NI BB NOT_NAMED 1938-10-06 12:00:00 TS 18.0353 89.9397 main 390 376 _________OP___ -1 18.1000 89.9000 TC 30 17.9706 89.9794 1 3 325
1938279N18090 1938 56 NI BB NOT_NAMED 1938-10-06 15:00:00 TS 18.1750 89.8500 main 376 376 _________PO___ -1 18.2500 89.8000 TC 31 18.1000 89.9000 1 3 328
1938279N18090 1938 56 NI BB NOT_NAMED 1938-10-06 18:00:00 TS 18.3165 89.7576 main 376 363 _________OP___ -1 18.4000 89.7000 TC 32 18.2331 89.8153 1 3 326
1938279N18090 1938 56 NI BB NOT_NAMED 1938-10-06 21:00:00 TS 18.4362 89.6650 main 363 350 _________PP___ -1 18.5075 89.6075 TC 33 18.3649 89.7225 1 3 320
1938279N18090 1938 56 NI BB NOT_NAMED 1938-10-07 00:00:00 TS 18.5447 89.5592 main 350 336 _________OP___ -1 18.6000 89.5000 TC 34 18.4893 89.6184 1 3 314
1938279N18090 1938 56 NI BB NOT_NAMED 1938-10-07 03:00:00 TS 18.6538 89.4288 main 325 325 _________PO___ -1 18.7075 89.3575 TC 36 18.6000 89.5000 2 3 307
1938279N18090 1938 56 NI BB NOT_NAMED 1938-10-07 06:00:00 TS 18.7467 89.2802 main 325 302 _________OP___ -1 18.8000 89.2000 TC 39 18.6935 89.3603 2 3 299
1938279N18090 1938 56 NI BB NOT_NAMED 1938-10-07 09:00:00 TS 18.8150 89.1250 main 302 287 _________PP___ -1 18.8575 89.0425 TC 42 18.7725 89.2075 2 3 293
1938279N18090 1938 56 NI BB NOT_NAMED 1938-10-07 12:00:00 TS 18.8702 88.9755 main 287 278 _________OP___ -1 18.9000 88.9000 TC 45 18.8403 89.0509 2 3 293
1938279N18090 1938 56 NI BB NOT_NAMED 1938-10-07 15:00:00 TS 18.9250 88.8500 main 270 263 _________PO___ -1 18.9500 88.8000 TC 45 18.9000 88.9000 3 2 296
1938279N18090 1938 56 NI BB NOT_NAMED 1938-10-07 18:00:00 TS 18.9765 88.7440 main 254 246 _________OP___ -1 19.0000 88.7000 TC 45 18.9530 88.7880 3 2 294
1938279N18090 1938 56 NI BB NOT_NAMED 1938-10-07 21:00:00 TS 19.0211 88.6261 main 246 231 _________PP___ -1 19.0425 88.5724 TC 45 18.9997 88.6798 3 3 291
1938279N18090 1938 56 NI BB NOT_NAMED 1938-10-08 00:00:00 TS 19.0733 88.4784 main 231 214 _________OP___ -1 19.1000 88.4000 TC 45 19.0467 88.5567 3 3 292
1938279N18090 1938 56 NI BB NOT_NAMED 1938-10-08 03:00:00 TS 19.1500 88.2825 main 207 191 _________PO___ -1 19.2000 88.1651 TC 45 19.1000 88.4000 3 4 292
1938279N18090 1938 56 NI BB NOT_NAMED 1938-10-08 06:00:00 TS 19.2400 88.0431 main 183 160 _________OP___ -1 19.3000 87.9000 TC 45 19.1801 88.1861 3 5 290
1938279N18090 1938 56 NI BB NOT_NAMED 1938-10-08 09:00:00 TS 19.3150 87.7939 main 160 130 _________PP___ -1 19.3650 87.6500 TC 45 19.2651 87.9378 3 5 285
1938279N18090 1938 56 NI BB NOT_NAMED 1938-10-08 12:00:00 TS 19.3713 87.5352 main 130 115 _________OP___ -1 19.4000 87.4000 TC 45 19.3426 87.6705 3 5 280
1938279N18090 1938 56 NI BB NOT_NAMED 1938-10-08 15:00:00 TS 19.4037 87.2750 main 115 91 _________PO___ -1 19.4075 87.1500 TC 45 19.4000 87.4000 3 5 275
1938279N18090 1938 56 NI BB NOT_NAMED 1938-10-08 18:00:00 TS 19.4107 87.0229 main 91 79 _________OP___ -1 19.4000 86.9000 TC 45 19.4215 87.1458 3 5 271
1938279N18090 1938 56 NI BB NOT_NAMED 1938-10-08 21:00:00 TS 19.4112 86.7711 main 79 67 _________PP___ -1 19.4000 86.6500 TC 45 19.4224 86.8923 3 5 269
1938279N18090 1938 56 NI BB NOT_NAMED 1938-10-09 00:00:00 TS 19.4061 86.5213 main 67 59 _________OP___ -1 19.4000 86.4000 TC 45 19.4121 86.6427 3 5 269
1938279N18090 1938 56 NI BB NOT_NAMED 1938-10-09 03:00:00 TS 19.4000 86.2713 main 59 49 _________PO___ -1 19.4000 86.1425 TC 49 19.4000 86.4000 3 5 269
1938279N18090 1938 56 NI BB NOT_NAMED 1938-10-09 06:00:00 TS 19.3979 86.0319 main 49 44 _________OP___ -1 19.4000 85.9000 TC 54 19.3958 86.1637 3 4 269
1938279N18090 1938 56 NI BB NOT_NAMED 1938-10-09 09:00:00 TS 19.3962 85.8137 main 44 30 _________PP___ -1 19.4000 85.6925 TC 59 19.3924 85.9350 3 4 270
1938279N18090 1938 56 NI BB NOT_NAMED 1938-10-09 12:00:00 TS 19.3964 85.6069 main 30 22 _________OP___ -1 19.4000 85.5000 TC 64 19.3927 85.7137 3 4 270
1938279N18090 1938 56 NI BB NOT_NAMED 1938-10-09 15:00:00 TS 19.3962 85.4000 main 22 11 _________PO___ -1 19.3925 85.3000 TC 55 19.4000 85.5000 4 4 271
1938279N18090 1938 56 NI BB NOT_NAMED 1938-10-09 18:00:00 TS 19.4046 85.2146 main 11 10 _________OP___ -1 19.4000 85.1000 TC 47 19.4092 85.3292 4 3 277
1938279N18090 1938 56 NI BB NOT_NAMED 1938-10-09 21:00:00 TS 19.4345 85.0486 main 0 0 _________PP___ -1 19.4423 84.9375 TC 38 19.4267 85.1597 4 4 281
1938279N18090 1938 56 NI BB NOT_NAMED 1938-10-10 00:00:00 TS 19.4780 84.8302 main 0 0 _________OP___ -1 19.5000 84.7000 TC 30 19.4559 84.9604 4 5 279
1938279N18090 1938 56 NI BB NOT_NAMED 1938-10-10 03:00:00 TS 19.5213 84.4900 main 0 0 _________PO___ -1 19.5427 84.2800 TC 30 19.5000 84.7000 1 7 278
1938279N18090 1938 56 NI BB NOT_NAMED 1938-10-10 06:00:00 TS 19.5744 84.0678 main 0 0 _________OP___ -1 19.6000 83.8000 TC 30 19.5488 84.3355 1 8 279
1938279N18090 1938 56 NI BB NOT_NAMED 1938-10-10 09:00:00 TS 19.6527 83.6512 main 0 0 _________PP___ -1 19.6924 83.3925 TC 30 19.6130 83.9098 1 8 282
1938279N18090 1938 56 NI BB NOT_NAMED 1938-10-10 12:00:00 TS 19.7478 83.2271 main 0 0 _________OP___ -1 19.8000 83.0000 TC 30 19.6956 83.4542 1 8 283
1938279N18090 1938 56 NI BB NOT_NAMED 1938-10-10 15:00:00 TS 19.8425 82.7999 main 0 0 _________PO___ -1 19.8849 82.5998 TC 30 19.8000 83.0000 1 8 284
1938279N18090 1938 56 NI BB NOT_NAMED 1938-10-10 18:00:00 TS 19.9458 82.3961 main 0 0 _________OP___ -1 20.0000 82.2000 TC 30 19.8915 82.5922 1 8 288
1938279N18090 1938 56 NI BB NOT_NAMED 1938-10-10 21:00:00 TS 20.0860 81.9993 main 0 0 _________PP___ -1 20.1624 81.8073 TC 30 20.0096 82.1914 1 8 294
1938279N18090 1938 56 NI BB NOT_NAMED 1938-10-11 00:00:00 TS 20.2864 81.5975 main 0 0 _________OP___ -1 20.4000 81.4000 TC 30 20.1728 81.7950 1 9 301
1938279N18090 1938 56 NI BB NOT_NAMED 1938-10-11 03:00:00 TS 20.5600 81.1713 main 0 0 _________PO___ -1 20.7201 80.9426 TC 30 20.4000 81.4000 1 10 308
1938279N18090 1938 56 NI BB NOT_NAMED 1938-10-11 06:00:00 TS 20.9011 80.7421 main 0 0 _________OP___ -1 21.1000 80.5000 TC 30 20.7022 80.9841 1 11 313
1938279N18090 1938 56 NI BB NOT_NAMED 1938-10-11 09:00:00 TS 21.2800 80.3489 main 0 0 _________PP___ -1 21.4924 80.1273 TC 30 21.0676 80.5705 1 11 318
1938279N18090 1938 56 NI BB NOT_NAMED 1938-10-11 12:00:00 TS 21.6871 79.9857 main 0 0 _________OP___ -1 21.9000 79.8000 TC 30 21.4741 80.1715 1 10 321
1938279N18090 1938 56 NI BB NOT_NAMED 1938-10-11 15:00:00 TS 22.0962 79.6461 main 0 0 _________PO___ -1 22.2924 79.4922 TC 30 21.9000 79.8000 1 10 324
1938279N18090 1938 56 NI BB NOT_NAMED 1938-10-11 18:00:00 TS 22.4870 79.3516 main 0 0 _________OP___ -1 22.7000 79.2000 TC 30 22.3272 79.4652 1 10 326
1938279N18090 1938 56 NI BB NOT_NAMED 1938-10-11 21:00:00 TS 22.9076 79.0576 main 0 0 _________PP___ -1 23.1401 78.9030 TC 30 22.7526 79.1607 1 10 328
1938279N18090 1938 56 NI BB NOT_NAMED 1938-10-12 00:00:00 TS 23.3178 78.7839 main 0 0 _________OP___ -1 23.6000 78.6000 TC 30 23.1767 78.8758 1 8 329
1938279N18090 1938 56 NI BB NOT_NAMED 1938-10-12 03:00:00 NR 23.6000 78.6000 main 0 __________O___ -1 TC 23.6000 78.6000 1 7 329

About IBTrACS Database

This database is a web-friendly format of International Best Track Archive for Climate Stewardship (IBTrACS), a global best track data archive curated by NOAA dating back to 1842.

Updated: 2021-11-26